sensor_id;sensor_type;location;lat;lon;timestamp;noise_LAeq;noise_LA_min;noise_LA_max;noise_LA01;noise_LA95
60872;Laerm;46714;50.118;14.462;2023-12-20T00:00:39;69.08;59.93;74.96;;
60872;Laerm;46714;50.118;14.462;2023-12-20T00:03:04;67.92;54.86;74.86;;
60872;Laerm;46714;50.118;14.462;2023-12-20T00:05:30;69.34;55.53;78.16;;
60872;Laerm;46714;50.118;14.462;2023-12-20T00:07:58;68.54;52.53;77.64;;
60872;Laerm;46714;50.118;14.462;2023-12-20T00:10:24;68.31;56.41;77.09;;
60872;Laerm;46714;50.118;14.462;2023-12-20T00:12:49;67.94;53.57;74.73;;
60872;Laerm;46714;50.118;14.462;2023-12-20T00:15:15;66.79;50.97;74.50;;
60872;Laerm;46714;50.118;14.462;2023-12-20T00:17:40;66.76;51.59;74.68;;
60872;Laerm;46714;50.118;14.462;2023-12-20T00:20:06;68.87;50.13;79.68;;
60872;Laerm;46714;50.118;14.462;2023-12-20T00:22:32;69.03;56.27;79.39;;
60872;Laerm;46714;50.118;14.462;2023-12-20T00:24:57;67.64;49.44;75.54;;
60872;Laerm;46714;50.118;14.462;2023-12-20T00:27:22;68.19;53.84;74.65;;
60872;Laerm;46714;50.118;14.462;2023-12-20T00:29:48;69.49;58.76;79.52;;
60872;Laerm;46714;50.118;14.462;2023-12-20T00:32:15;66.99;58.82;74.82;;
60872;Laerm;46714;50.118;14.462;2023-12-20T00:34:41;67.35;57.43;75.78;;
60872;Laerm;46714;50.118;14.462;2023-12-20T00:37:07;68.98;56.05;77.66;;
60872;Laerm;46714;50.118;14.462;2023-12-20T00:39:32;67.75;55.30;75.02;;
60872;Laerm;46714;50.118;14.462;2023-12-20T00:41:58;67.27;52.14;84.03;;
60872;Laerm;46714;50.118;14.462;2023-12-20T00:44:23;69.10;55.94;76.86;;
60872;Laerm;46714;50.118;14.462;2023-12-20T00:46:49;64.96;50.22;73.60;;
60872;Laerm;46714;50.118;14.462;2023-12-20T00:49:14;66.70;50.70;74.63;;
60872;Laerm;46714;50.118;14.462;2023-12-20T00:51:40;66.95;46.84;74.40;;
60872;Laerm;46714;50.118;14.462;2023-12-20T00:54:05;66.94;55.30;78.03;;
60872;Laerm;46714;50.118;14.462;2023-12-20T00:56:30;69.91;49.58;80.18;;
60872;Laerm;46714;50.118;14.462;2023-12-20T00:58:56;67.20;54.88;75.87;;
60872;Laerm;46714;50.118;14.462;2023-12-20T01:01:21;66.68;53.57;75.21;;
60872;Laerm;46714;50.118;14.462;2023-12-20T01:03:47;67.96;52.26;75.85;;
60872;Laerm;46714;50.118;14.462;2023-12-20T01:06:13;67.10;53.45;74.47;;
60872;Laerm;46714;50.118;14.462;2023-12-20T01:08:38;69.45;58.82;77.94;;
60872;Laerm;46714;50.118;14.462;2023-12-20T01:11:04;66.91;51.97;74.74;;
60872;Laerm;46714;50.118;14.462;2023-12-20T01:13:30;67.21;53.52;76.70;;
60872;Laerm;46714;50.118;14.462;2023-12-20T01:15:56;67.66;53.81;84.17;;
60872;Laerm;46714;50.118;14.462;2023-12-20T01:18:21;65.02;54.09;77.30;;
60872;Laerm;46714;50.118;14.462;2023-12-20T01:20:47;66.56;46.45;74.29;;
60872;Laerm;46714;50.118;14.462;2023-12-20T01:23:12;64.41;47.95;73.39;;
60872;Laerm;46714;50.118;14.462;2023-12-20T01:25:37;66.64;54.14;74.54;;
60872;Laerm;46714;50.118;14.462;2023-12-20T01:28:03;66.56;53.30;75.07;;
60872;Laerm;46714;50.118;14.462;2023-12-20T01:30:28;66.58;50.65;76.27;;
60872;Laerm;46714;50.118;14.462;2023-12-20T01:32:54;67.07;53.48;78.09;;
60872;Laerm;46714;50.118;14.462;2023-12-20T01:35:19;65.05;50.81;74.82;;
60872;Laerm;46714;50.118;14.462;2023-12-20T01:37:45;67.84;56.94;78.13;;
60872;Laerm;46714;50.118;14.462;2023-12-20T01:40:10;65.54;50.96;75.50;;
60872;Laerm;46714;50.118;14.462;2023-12-20T01:42:36;67.88;55.47;76.38;;
60872;Laerm;46714;50.118;14.462;2023-12-20T01:45:01;67.14;52.24;76.14;;
60872;Laerm;46714;50.118;14.462;2023-12-20T01:47:27;65.05;46.64;75.98;;
60872;Laerm;46714;50.118;14.462;2023-12-20T01:49:53;67.87;53.00;80.23;;
60872;Laerm;46714;50.118;14.462;2023-12-20T01:52:20;68.55;49.32;79.15;;
60872;Laerm;46714;50.118;14.462;2023-12-20T01:54:47;67.68;49.83;77.89;;
60872;Laerm;46714;50.118;14.462;2023-12-20T01:57:13;64.81;46.40;75.48;;
60872;Laerm;46714;50.118;14.462;2023-12-20T01:59:39;65.84;43.24;80.28;;
60872;Laerm;46714;50.118;14.462;2023-12-20T02:02:05;67.02;53.57;75.88;;
60872;Laerm;46714;50.118;14.462;2023-12-20T02:04:32;66.60;48.43;75.16;;
60872;Laerm;46714;50.118;14.462;2023-12-20T02:06:58;65.65;53.36;75.53;;
60872;Laerm;46714;50.118;14.462;2023-12-20T02:09:24;66.23;53.34;74.30;;
60872;Laerm;46714;50.118;14.462;2023-12-20T02:11:50;67.02;51.62;74.23;;
60872;Laerm;46714;50.118;14.462;2023-12-20T02:14:15;66.05;48.42;76.35;;
60872;Laerm;46714;50.118;14.462;2023-12-20T02:16:41;67.05;51.59;76.42;;
60872;Laerm;46714;50.118;14.462;2023-12-20T02:19:13;67.94;58.06;77.84;;
60872;Laerm;46714;50.118;14.462;2023-12-20T02:21:39;67.93;51.62;77.96;;
60872;Laerm;46714;50.118;14.462;2023-12-20T02:24:04;67.18;50.03;77.28;;
60872;Laerm;46714;50.118;14.462;2023-12-20T02:26:32;67.56;47.30;78.67;;
60872;Laerm;46714;50.118;14.462;2023-12-20T02:28:59;67.47;51.62;75.40;;
60872;Laerm;46714;50.118;14.462;2023-12-20T02:31:25;74.55;53.88;91.89;;
60872;Laerm;46714;50.118;14.462;2023-12-20T02:33:50;68.42;53.42;78.75;;
60872;Laerm;46714;50.118;14.462;2023-12-20T02:36:16;66.84;51.37;76.24;;
60872;Laerm;46714;50.118;14.462;2023-12-20T02:38:41;66.57;52.36;75.45;;
60872;Laerm;46714;50.118;14.462;2023-12-20T02:41:06;67.57;52.75;79.21;;
60872;Laerm;46714;50.118;14.462;2023-12-20T02:43:32;66.60;48.12;75.77;;
60872;Laerm;46714;50.118;14.462;2023-12-20T02:45:57;68.16;46.13;75.21;;
60872;Laerm;46714;50.118;14.462;2023-12-20T02:48:23;67.28;54.21;77.20;;
60872;Laerm;46714;50.118;14.462;2023-12-20T02:50:48;65.67;48.54;74.39;;
60872;Laerm;46714;50.118;14.462;2023-12-20T02:53:14;65.91;54.13;74.49;;
60872;Laerm;46714;50.118;14.462;2023-12-20T02:55:40;68.20;57.03;77.46;;
60872;Laerm;46714;50.118;14.462;2023-12-20T02:58:05;65.28;53.81;72.74;;
60872;Laerm;46714;50.118;14.462;2023-12-20T03:00:31;65.53;50.66;73.47;;
60872;Laerm;46714;50.118;14.462;2023-12-20T03:02:56;69.31;54.57;79.39;;
60872;Laerm;46714;50.118;14.462;2023-12-20T03:05:22;68.09;45.97;80.02;;
60872;Laerm;46714;50.118;14.462;2023-12-20T03:07:47;68.74;57.25;75.15;;
60872;Laerm;46714;50.118;14.462;2023-12-20T03:10:12;68.84;51.51;79.98;;
60872;Laerm;46714;50.118;14.462;2023-12-20T03:12:38;68.29;54.27;75.35;;
60872;Laerm;46714;50.118;14.462;2023-12-20T03:15:04;69.80;44.73;83.10;;
60872;Laerm;46714;50.118;14.462;2023-12-20T03:17:29;68.61;49.84;79.71;;
60872;Laerm;46714;50.118;14.462;2023-12-20T03:19:55;68.92;53.51;78.89;;
60872;Laerm;46714;50.118;14.462;2023-12-20T03:22:20;69.37;50.33;82.12;;
60872;Laerm;46714;50.118;14.462;2023-12-20T03:24:45;67.17;51.42;77.33;;
60872;Laerm;46714;50.118;14.462;2023-12-20T03:27:11;71.41;53.09;79.34;;
60872;Laerm;46714;50.118;14.462;2023-12-20T03:29:36;70.64;62.35;77.62;;
60872;Laerm;46714;50.118;14.462;2023-12-20T03:32:02;68.49;55.10;75.67;;
60872;Laerm;46714;50.118;14.462;2023-12-20T03:34:27;71.74;53.87;79.46;;
60872;Laerm;46714;50.118;14.462;2023-12-20T03:36:54;70.96;54.81;81.69;;
60872;Laerm;46714;50.118;14.462;2023-12-20T03:39:19;69.94;57.36;78.06;;
60872;Laerm;46714;50.118;14.462;2023-12-20T03:41:45;72.30;57.49;84.03;;
60872;Laerm;46714;50.118;14.462;2023-12-20T03:44:10;68.40;52.11;81.43;;
60872;Laerm;46714;50.118;14.462;2023-12-20T03:46:36;70.57;57.82;79.16;;
60872;Laerm;46714;50.118;14.462;2023-12-20T03:49:01;70.26;58.06;79.35;;
60872;Laerm;46714;50.118;14.462;2023-12-20T03:51:27;70.78;58.44;77.55;;
60872;Laerm;46714;50.118;14.462;2023-12-20T03:53:53;70.93;58.25;80.17;;
60872;Laerm;46714;50.118;14.462;2023-12-20T03:56:18;70.06;57.86;80.60;;
60872;Laerm;46714;50.118;14.462;2023-12-20T03:58:43;71.23;53.91;80.31;;
60872;Laerm;46714;50.118;14.462;2023-12-20T04:01:10;71.42;52.82;78.81;;
60872;Laerm;46714;50.118;14.462;2023-12-20T04:03:37;72.27;63.70;81.82;;
60872;Laerm;46714;50.118;14.462;2023-12-20T04:06:02;72.19;61.13;79.03;;
60872;Laerm;46714;50.118;14.462;2023-12-20T04:08:28;73.10;61.79;80.66;;
60872;Laerm;46714;50.118;14.462;2023-12-20T04:10:53;71.73;58.39;79.76;;
60872;Laerm;46714;50.118;14.462;2023-12-20T04:13:18;72.39;62.57;78.02;;
60872;Laerm;46714;50.118;14.462;2023-12-20T04:15:44;73.16;64.06;80.59;;
60872;Laerm;46714;50.118;14.462;2023-12-20T04:18:09;72.96;64.57;78.84;;
60872;Laerm;46714;50.118;14.462;2023-12-20T04:20:35;73.13;67.32;80.60;;
60872;Laerm;46714;50.118;14.462;2023-12-20T04:23:00;73.74;59.66;82.33;;
60872;Laerm;46714;50.118;14.462;2023-12-20T04:25:26;72.97;64.51;77.31;;
60872;Laerm;46714;50.118;14.462;2023-12-20T04:27:51;75.48;66.56;83.53;;
60872;Laerm;46714;50.118;14.462;2023-12-20T04:30:17;73.16;61.10;79.22;;
60872;Laerm;46714;50.118;14.462;2023-12-20T04:32:43;74.53;66.07;83.26;;
60872;Laerm;46714;50.118;14.462;2023-12-20T04:35:08;73.80;65.63;78.19;;
60872;Laerm;46714;50.118;14.462;2023-12-20T04:37:34;75.23;66.89;83.75;;
60872;Laerm;46714;50.118;14.462;2023-12-20T04:39:59;74.60;68.50;81.72;;
60872;Laerm;46714;50.118;14.462;2023-12-20T04:42:25;74.55;63.20;82.32;;
60872;Laerm;46714;50.118;14.462;2023-12-20T04:44:50;74.86;67.78;80.10;;
60872;Laerm;46714;50.118;14.462;2023-12-20T04:47:16;73.92;67.03;81.96;;
60872;Laerm;46714;50.118;14.462;2023-12-20T04:49:41;74.95;69.44;79.45;;
60872;Laerm;46714;50.118;14.462;2023-12-20T04:52:06;74.51;68.22;78.45;;
60872;Laerm;46714;50.118;14.462;2023-12-20T04:54:32;75.31;69.14;80.01;;
60872;Laerm;46714;50.118;14.462;2023-12-20T04:56:57;76.29;68.34;83.48;;
60872;Laerm;46714;50.118;14.462;2023-12-20T04:59:23;75.25;69.97;80.42;;
60872;Laerm;46714;50.118;14.462;2023-12-20T05:01:48;75.17;66.87;80.03;;
60872;Laerm;46714;50.118;14.462;2023-12-20T05:04:14;74.71;68.91;78.75;;
60872;Laerm;46714;50.118;14.462;2023-12-20T05:06:39;75.29;68.46;81.20;;
60872;Laerm;46714;50.118;14.462;2023-12-20T05:09:05;76.31;70.75;83.78;;
60872;Laerm;46714;50.118;14.462;2023-12-20T05:11:31;76.98;71.86;86.09;;
60872;Laerm;46714;50.118;14.462;2023-12-20T05:13:56;76.69;71.41;82.00;;
60872;Laerm;46714;50.118;14.462;2023-12-20T05:16:22;75.25;68.48;83.21;;
60872;Laerm;46714;50.118;14.462;2023-12-20T05:18:48;75.33;68.29;82.42;;
60872;Laerm;46714;50.118;14.462;2023-12-20T05:21:15;75.63;70.42;80.61;;
60872;Laerm;46714;50.118;14.462;2023-12-20T05:23:41;75.90;69.25;82.45;;
60872;Laerm;46714;50.118;14.462;2023-12-20T05:26:06;76.00;68.98;80.87;;
60872;Laerm;46714;50.118;14.462;2023-12-20T05:28:32;76.24;68.74;81.64;;
60872;Laerm;46714;50.118;14.462;2023-12-20T05:30:57;76.97;72.50;81.83;;
60872;Laerm;46714;50.118;14.462;2023-12-20T05:33:23;76.52;69.54;80.52;;
60872;Laerm;46714;50.118;14.462;2023-12-20T05:35:50;75.92;68.65;83.15;;
60872;Laerm;46714;50.118;14.462;2023-12-20T05:38:15;77.41;71.52;84.47;;
60872;Laerm;46714;50.118;14.462;2023-12-20T05:40:40;76.54;65.24;83.39;;
60872;Laerm;46714;50.118;14.462;2023-12-20T05:43:06;76.41;71.92;82.32;;
60872;Laerm;46714;50.118;14.462;2023-12-20T05:45:31;76.27;70.01;80.21;;
60872;Laerm;46714;50.118;14.462;2023-12-20T05:47:56;76.87;70.95;84.02;;
60872;Laerm;46714;50.118;14.462;2023-12-20T05:50:22;76.71;68.64;81.22;;
60872;Laerm;46714;50.118;14.462;2023-12-20T05:52:47;76.81;71.74;81.45;;
60872;Laerm;46714;50.118;14.462;2023-12-20T05:55:13;77.32;73.59;80.82;;
60872;Laerm;46714;50.118;14.462;2023-12-20T05:57:38;76.31;68.23;80.55;;
60872;Laerm;46714;50.118;14.462;2023-12-20T06:00:04;76.84;69.91;82.31;;
60872;Laerm;46714;50.118;14.462;2023-12-20T06:02:29;75.65;65.73;80.44;;
60872;Laerm;46714;50.118;14.462;2023-12-20T06:04:55;76.09;70.19;80.13;;
60872;Laerm;46714;50.118;14.462;2023-12-20T06:07:20;76.03;70.85;80.52;;
60872;Laerm;46714;50.118;14.462;2023-12-20T06:09:45;75.65;66.90;82.45;;
60872;Laerm;46714;50.118;14.462;2023-12-20T06:12:11;76.56;71.29;81.85;;
60872;Laerm;46714;50.118;14.462;2023-12-20T06:14:36;77.00;71.23;82.38;;
60872;Laerm;46714;50.118;14.462;2023-12-20T06:17:02;76.72;70.59;80.49;;
60872;Laerm;46714;50.118;14.462;2023-12-20T06:19:28;78.03;69.28;99.22;;
60872;Laerm;46714;50.118;14.462;2023-12-20T06:21:53;82.52;69.94;103.38;;
60872;Laerm;46714;50.118;14.462;2023-12-20T06:24:19;80.46;70.91;100.28;;
60872;Laerm;46714;50.118;14.462;2023-12-20T06:26:44;77.52;68.50;90.71;;
60872;Laerm;46714;50.118;14.462;2023-12-20T06:29:09;75.89;69.17;80.78;;
60872;Laerm;46714;50.118;14.462;2023-12-20T06:31:35;75.80;69.35;81.94;;
60872;Laerm;46714;50.118;14.462;2023-12-20T06:34:00;76.96;67.66;83.65;;
60872;Laerm;46714;50.118;14.462;2023-12-20T06:36:29;76.42;71.36;80.65;;
60872;Laerm;46714;50.118;14.462;2023-12-20T06:38:54;76.62;70.71;87.25;;
60872;Laerm;46714;50.118;14.462;2023-12-20T06:41:20;75.34;68.37;79.45;;
60872;Laerm;46714;50.118;14.462;2023-12-20T06:43:46;75.88;68.96;80.15;;
60872;Laerm;46714;50.118;14.462;2023-12-20T06:46:12;76.57;72.32;81.37;;
60872;Laerm;46714;50.118;14.462;2023-12-20T06:48:38;76.99;70.19;80.52;;
60872;Laerm;46714;50.118;14.462;2023-12-20T06:51:04;76.84;71.66;83.84;;
60872;Laerm;46714;50.118;14.462;2023-12-20T06:53:29;76.65;70.12;79.60;;
60872;Laerm;46714;50.118;14.462;2023-12-20T06:55:55;78.87;69.72;94.43;;
60872;Laerm;46714;50.118;14.462;2023-12-20T06:58:21;76.08;70.33;82.65;;
60872;Laerm;46714;50.118;14.462;2023-12-20T07:00:47;76.11;71.57;80.93;;
60872;Laerm;46714;50.118;14.462;2023-12-20T07:03:12;76.27;67.46;81.69;;
60872;Laerm;46714;50.118;14.462;2023-12-20T07:05:38;75.78;68.02;84.13;;
60872;Laerm;46714;50.118;14.462;2023-12-20T07:08:04;76.07;71.60;80.91;;
60872;Laerm;46714;50.118;14.462;2023-12-20T07:10:30;76.74;69.87;84.38;;
60872;Laerm;46714;50.118;14.462;2023-12-20T07:12:55;76.18;68.52;83.66;;
60872;Laerm;46714;50.118;14.462;2023-12-20T07:15:25;76.61;72.18;88.32;;
60872;Laerm;46714;50.118;14.462;2023-12-20T07:17:53;76.42;67.67;82.17;;
60872;Laerm;46714;50.118;14.462;2023-12-20T07:20:18;77.10;71.31;82.68;;
60872;Laerm;46714;50.118;14.462;2023-12-20T07:22:44;77.21;71.70;80.53;;
60872;Laerm;46714;50.118;14.462;2023-12-20T07:25:09;78.03;72.25;85.16;;
60872;Laerm;46714;50.118;14.462;2023-12-20T07:27:35;76.80;69.46;81.83;;
60872;Laerm;46714;50.118;14.462;2023-12-20T07:30:01;75.52;68.47;80.56;;
60872;Laerm;46714;50.118;14.462;2023-12-20T07:32:26;77.02;71.37;83.39;;
60872;Laerm;46714;50.118;14.462;2023-12-20T07:34:52;78.94;72.01;95.06;;
60872;Laerm;46714;50.118;14.462;2023-12-20T07:37:18;77.07;69.60;89.85;;
60872;Laerm;46714;50.118;14.462;2023-12-20T07:39:44;81.44;72.11;96.43;;
60872;Laerm;46714;50.118;14.462;2023-12-20T07:42:09;77.56;69.91;86.34;;
60872;Laerm;46714;50.118;14.462;2023-12-20T07:44:35;77.21;71.11;81.18;;
60872;Laerm;46714;50.118;14.462;2023-12-20T07:47:04;77.09;69.74;81.39;;
60872;Laerm;46714;50.118;14.462;2023-12-20T07:49:30;76.13;67.35;83.30;;
60872;Laerm;46714;50.118;14.462;2023-12-20T07:51:56;77.26;71.05;83.44;;
60872;Laerm;46714;50.118;14.462;2023-12-20T07:54:22;86.99;70.19;110.69;;
60872;Laerm;46714;50.118;14.462;2023-12-20T07:56:49;76.49;72.99;80.50;;
60872;Laerm;46714;50.118;14.462;2023-12-20T07:59:14;76.33;71.18;81.95;;
60872;Laerm;46714;50.118;14.462;2023-12-20T08:01:40;76.71;68.99;82.53;;
60872;Laerm;46714;50.118;14.462;2023-12-20T08:04:08;77.59;70.81;89.98;;
60872;Laerm;46714;50.118;14.462;2023-12-20T08:06:34;76.03;69.45;81.27;;
60872;Laerm;46714;50.118;14.462;2023-12-20T08:08:59;76.38;70.12;83.35;;
60872;Laerm;46714;50.118;14.462;2023-12-20T08:11:24;76.00;70.47;81.28;;
60872;Laerm;46714;50.118;14.462;2023-12-20T08:13:50;76.37;71.70;80.84;;
60872;Laerm;46714;50.118;14.462;2023-12-20T08:16:16;77.28;71.46;92.56;;
60872;Laerm;46714;50.118;14.462;2023-12-20T08:18:43;76.39;67.26;88.77;;
60872;Laerm;46714;50.118;14.462;2023-12-20T08:21:08;77.83;67.16;94.44;;
60872;Laerm;46714;50.118;14.462;2023-12-20T08:23:34;75.56;68.31;81.70;;
60872;Laerm;46714;50.118;14.462;2023-12-20T08:26:07;75.68;69.33;82.21;;
60872;Laerm;46714;50.118;14.462;2023-12-20T08:28:33;75.83;71.14;82.27;;
60872;Laerm;46714;50.118;14.462;2023-12-20T08:30:59;78.65;71.01;98.02;;
60872;Laerm;46714;50.118;14.462;2023-12-20T08:33:24;75.74;69.86;82.07;;
60872;Laerm;46714;50.118;14.462;2023-12-20T08:35:50;75.37;70.48;81.59;;
60872;Laerm;46714;50.118;14.462;2023-12-20T08:38:15;75.39;71.07;82.08;;
60872;Laerm;46714;50.118;14.462;2023-12-20T08:40:41;76.11;70.36;82.86;;
60872;Laerm;46714;50.118;14.462;2023-12-20T08:43:07;75.79;71.14;81.60;;
60872;Laerm;46714;50.118;14.462;2023-12-20T08:45:33;77.64;70.55;92.78;;
60872;Laerm;46714;50.118;14.462;2023-12-20T08:47:58;75.50;70.00;80.59;;
60872;Laerm;46714;50.118;14.462;2023-12-20T08:50:25;75.70;71.84;78.81;;
60872;Laerm;46714;50.118;14.462;2023-12-20T08:52:50;75.20;71.10;81.88;;
60872;Laerm;46714;50.118;14.462;2023-12-20T08:55:16;76.94;72.23;91.14;;
60872;Laerm;46714;50.118;14.462;2023-12-20T08:57:43;75.39;71.72;81.45;;
60872;Laerm;46714;50.118;14.462;2023-12-20T09:00:09;74.86;70.28;82.01;;
60872;Laerm;46714;50.118;14.462;2023-12-20T09:02:34;75.95;70.98;81.40;;
60872;Laerm;46714;50.118;14.462;2023-12-20T09:05:01;75.00;67.88;79.60;;
60872;Laerm;46714;50.118;14.462;2023-12-20T09:07:27;75.80;69.46;81.05;;
60872;Laerm;46714;50.118;14.462;2023-12-20T09:09:55;75.79;70.56;83.76;;
60872;Laerm;46714;50.118;14.462;2023-12-20T09:12:22;75.89;72.00;83.48;;
60872;Laerm;46714;50.118;14.462;2023-12-20T09:14:49;75.65;69.75;78.97;;
60872;Laerm;46714;50.118;14.462;2023-12-20T09:17:16;77.87;69.17;98.91;;
60872;Laerm;46714;50.118;14.462;2023-12-20T09:19:42;76.29;70.53;82.85;;
60872;Laerm;46714;50.118;14.462;2023-12-20T09:22:09;76.35;72.13;84.67;;
60872;Laerm;46714;50.118;14.462;2023-12-20T09:24:34;75.60;69.39;81.28;;
60872;Laerm;46714;50.118;14.462;2023-12-20T09:27:00;75.44;70.07;80.66;;
60872;Laerm;46714;50.118;14.462;2023-12-20T09:29:25;75.70;71.73;81.18;;
60872;Laerm;46714;50.118;14.462;2023-12-20T09:31:50;75.33;70.32;81.40;;
60872;Laerm;46714;50.118;14.462;2023-12-20T09:34:16;75.14;69.03;79.32;;
60872;Laerm;46714;50.118;14.462;2023-12-20T09:36:42;74.87;69.67;79.88;;
60872;Laerm;46714;50.118;14.462;2023-12-20T09:39:15;75.94;70.78;82.25;;
60872;Laerm;46714;50.118;14.462;2023-12-20T09:41:45;75.44;69.19;81.35;;
60872;Laerm;46714;50.118;14.462;2023-12-20T09:44:15;74.99;68.53;80.71;;
60872;Laerm;46714;50.118;14.462;2023-12-20T09:46:45;74.61;69.41;78.39;;
60872;Laerm;46714;50.118;14.462;2023-12-20T09:49:14;75.19;70.10;83.62;;
60872;Laerm;46714;50.118;14.462;2023-12-20T09:51:40;74.77;70.83;79.34;;
60872;Laerm;46714;50.118;14.462;2023-12-20T09:54:05;84.62;70.28;106.66;;
60872;Laerm;46714;50.118;14.462;2023-12-20T09:56:31;78.27;70.05;100.31;;
60872;Laerm;46714;50.118;14.462;2023-12-20T09:58:57;75.39;69.28;86.59;;
60872;Laerm;46714;50.118;14.462;2023-12-20T10:01:28;75.13;71.12;79.83;;
60872;Laerm;46714;50.118;14.462;2023-12-20T10:03:54;74.60;67.65;82.01;;
60872;Laerm;46714;50.118;14.462;2023-12-20T10:06:23;75.47;70.02;79.43;;
60872;Laerm;46714;50.118;14.462;2023-12-20T10:08:48;75.16;71.09;81.30;;
60872;Laerm;46714;50.118;14.462;2023-12-20T10:11:14;74.81;68.15;79.91;;
60872;Laerm;46714;50.118;14.462;2023-12-20T10:13:40;75.12;67.84;83.01;;
60872;Laerm;46714;50.118;14.462;2023-12-20T10:16:06;74.88;69.77;81.28;;
60872;Laerm;46714;50.118;14.462;2023-12-20T10:18:32;76.03;70.01;95.92;;
60872;Laerm;46714;50.118;14.462;2023-12-20T10:20:58;74.97;67.13;79.81;;
60872;Laerm;46714;50.118;14.462;2023-12-20T10:23:24;75.41;72.18;84.61;;
60872;Laerm;46714;50.118;14.462;2023-12-20T10:25:59;76.06;72.65;79.82;;
60872;Laerm;46714;50.118;14.462;2023-12-20T10:28:24;75.65;71.78;79.87;;
60872;Laerm;46714;50.118;14.462;2023-12-20T10:30:55;75.06;69.70;80.58;;
60872;Laerm;46714;50.118;14.462;2023-12-20T10:33:25;78.03;68.98;97.23;;
60872;Laerm;46714;50.118;14.462;2023-12-20T10:35:51;74.12;67.54;78.50;;
60872;Laerm;46714;50.118;14.462;2023-12-20T10:38:17;74.87;69.00;82.02;;
60872;Laerm;46714;50.118;14.462;2023-12-20T10:40:45;74.16;69.28;77.83;;
60872;Laerm;46714;50.118;14.462;2023-12-20T10:43:11;74.72;71.02;79.84;;
60872;Laerm;46714;50.118;14.462;2023-12-20T10:45:37;74.86;71.08;79.78;;
60872;Laerm;46714;50.118;14.462;2023-12-20T10:48:02;77.83;64.57;98.34;;
60872;Laerm;46714;50.118;14.462;2023-12-20T10:50:30;74.64;68.56;81.32;;
60872;Laerm;46714;50.118;14.462;2023-12-20T10:52:57;77.38;70.58;96.73;;
60872;Laerm;46714;50.118;14.462;2023-12-20T10:55:23;75.66;70.25;91.61;;
60872;Laerm;46714;50.118;14.462;2023-12-20T10:57:54;74.55;70.02;78.55;;
60872;Laerm;46714;50.118;14.462;2023-12-20T11:00:21;73.97;67.11;77.87;;
60872;Laerm;46714;50.118;14.462;2023-12-20T11:02:49;74.24;68.06;79.81;;
60872;Laerm;46714;50.118;14.462;2023-12-20T11:05:38;74.10;66.74;79.21;;
60872;Laerm;46714;50.118;14.462;2023-12-20T11:08:14;73.77;67.39;80.04;;
60872;Laerm;46714;50.118;14.462;2023-12-20T11:13:20;73.89;69.76;79.11;;
60872;Laerm;46714;50.118;14.462;2023-12-20T11:15:48;74.48;69.90;78.62;;
60872;Laerm;46714;50.118;14.462;2023-12-20T11:18:14;74.85;68.89;82.21;;
60872;Laerm;46714;50.118;14.462;2023-12-20T11:20:41;74.37;70.17;79.82;;
60872;Laerm;46714;50.118;14.462;2023-12-20T11:23:08;74.54;70.24;81.00;;
60872;Laerm;46714;50.118;14.462;2023-12-20T11:25:53;74.26;70.50;79.99;;
60872;Laerm;46714;50.118;14.462;2023-12-20T11:28:23;74.95;68.07;88.53;;
60872;Laerm;46714;50.118;14.462;2023-12-20T11:30:57;74.05;70.00;82.09;;
60872;Laerm;46714;50.118;14.462;2023-12-20T11:33:29;80.09;68.65;99.13;;
60872;Laerm;46714;50.118;14.462;2023-12-20T11:35:56;74.68;67.92;82.82;;
60872;Laerm;46714;50.118;14.462;2023-12-20T11:38:21;80.36;62.61;97.68;;
60872;Laerm;46714;50.118;14.462;2023-12-20T11:40:51;73.79;67.67;78.97;;
60872;Laerm;46714;50.118;14.462;2023-12-20T11:43:36;74.15;69.14;79.30;;
60872;Laerm;46714;50.118;14.462;2023-12-20T11:46:05;74.43;70.27;80.91;;
60872;Laerm;46714;50.118;14.462;2023-12-20T11:48:32;74.45;69.28;80.23;;
60872;Laerm;46714;50.118;14.462;2023-12-20T11:50:58;73.60;68.71;82.27;;
60872;Laerm;46714;50.118;14.462;2023-12-20T11:53:23;73.54;66.35;77.96;;
60872;Laerm;46714;50.118;14.462;2023-12-20T11:55:54;75.21;70.17;92.31;;
60872;Laerm;46714;50.118;14.462;2023-12-20T11:58:19;77.43;69.16;99.26;;
60872;Laerm;46714;50.118;14.462;2023-12-20T12:00:45;73.84;67.94;89.56;;
60872;Laerm;46714;50.118;14.462;2023-12-20T12:03:14;74.08;69.47;80.74;;
60872;Laerm;46714;50.118;14.462;2023-12-20T12:05:40;81.92;68.15;102.13;;
60872;Laerm;46714;50.118;14.462;2023-12-20T12:08:06;73.65;68.47;77.76;;
60872;Laerm;46714;50.118;14.462;2023-12-20T12:10:33;74.14;69.46;78.67;;
60872;Laerm;46714;50.118;14.462;2023-12-20T12:12:58;76.04;67.72;93.86;;
60872;Laerm;46714;50.118;14.462;2023-12-20T12:15:25;82.90;70.58;103.33;;
60872;Laerm;46714;50.118;14.462;2023-12-20T12:17:54;74.39;66.85;83.56;;
60872;Laerm;46714;50.118;14.462;2023-12-20T12:20:20;73.44;68.34;83.30;;
60872;Laerm;46714;50.118;14.462;2023-12-20T12:22:46;73.73;68.24;80.04;;
60872;Laerm;46714;50.118;14.462;2023-12-20T12:25:16;73.99;68.00;78.87;;
60872;Laerm;46714;50.118;14.462;2023-12-20T12:27:42;77.26;64.27;96.49;;
60872;Laerm;46714;50.118;14.462;2023-12-20T12:30:09;73.75;65.13;79.67;;
60872;Laerm;46714;50.118;14.462;2023-12-20T12:32:35;74.05;69.92;78.96;;
60872;Laerm;46714;50.118;14.462;2023-12-20T12:35:03;74.28;68.41;84.66;;
60872;Laerm;46714;50.118;14.462;2023-12-20T12:37:33;75.11;68.42;89.25;;
60872;Laerm;46714;50.118;14.462;2023-12-20T12:39:59;73.87;68.66;78.23;;
60872;Laerm;46714;50.118;14.462;2023-12-20T12:42:24;74.77;69.79;85.42;;
60872;Laerm;46714;50.118;14.462;2023-12-20T12:44:54;77.79;69.45;99.57;;
60872;Laerm;46714;50.118;14.462;2023-12-20T12:47:19;77.91;70.44;98.01;;
60872;Laerm;46714;50.118;14.462;2023-12-20T12:49:44;74.05;67.83;84.53;;
60872;Laerm;46714;50.118;14.462;2023-12-20T12:52:10;75.33;70.49;92.30;;
60872;Laerm;46714;50.118;14.462;2023-12-20T12:54:35;84.38;69.72;105.88;;
60872;Laerm;46714;50.118;14.462;2023-12-20T12:57:01;74.52;67.93;79.58;;
60872;Laerm;46714;50.118;14.462;2023-12-20T12:59:27;75.12;71.16;84.91;;
60872;Laerm;46714;50.118;14.462;2023-12-20T13:01:52;74.07;70.68;78.96;;
60872;Laerm;46714;50.118;14.462;2023-12-20T13:04:18;74.50;69.43;81.10;;
60872;Laerm;46714;50.118;14.462;2023-12-20T13:06:43;73.96;70.82;78.81;;
60872;Laerm;46714;50.118;14.462;2023-12-20T13:09:09;74.31;70.04;78.60;;
60872;Laerm;46714;50.118;14.462;2023-12-20T13:11:37;74.69;67.64;80.15;;
60872;Laerm;46714;50.118;14.462;2023-12-20T13:14:02;77.30;70.21;97.36;;
60872;Laerm;46714;50.118;14.462;2023-12-20T13:16:29;75.84;69.98;94.84;;
60872;Laerm;46714;50.118;14.462;2023-12-20T13:18:54;76.67;70.93;94.50;;
60872;Laerm;46714;50.118;14.462;2023-12-20T13:21:21;74.35;71.25;78.06;;
60872;Laerm;46714;50.118;14.462;2023-12-20T13:23:46;74.20;70.94;79.11;;
60872;Laerm;46714;50.118;14.462;2023-12-20T13:26:12;73.50;69.53;77.57;;
60872;Laerm;46714;50.118;14.462;2023-12-20T13:28:37;73.25;62.62;78.50;;